Time;durP1;ratioP1;P1;durP2;ratioP2;P2;SDS_P1;SDS_P2;PMS_P1;PMS_P2;Temp;Humidity;BMP_temperature;BMP_pressure;BME280_temperature;BME280_humidity;BME280_pressure;Samples;Min_cycle;Max_cycle;Signal;HPM_P1;HPM_P2
2023/05/15 00:01:06;;;;;;;1.30;1.30;;;;;;;11.83;100.00;94956.44;4352487;32;20240;-59
2023/05/15 00:03:32;;;;;;;1.43;1.33;;;;;;;11.91;100.00;94955.66;4355034;32;20215;-59
2023/05/15 00:05:57;;;;;;;1.63;1.53;;;;;;;11.82;100.00;94953.00;4358150;32;20251;-60
2023/05/15 00:08:23;;;;;;;0.67;0.67;;;;;;;11.90;100.00;94954.09;4360102;32;20194;-60
2023/05/15 00:10:48;;;;;;;0.87;0.87;;;;;;;11.89;100.00;94955.19;4337965;32;20200;-59
2023/05/15 00:13:16;;;;;;;1.77;1.43;;;;;;;11.91;100.00;94955.66;4361809;32;20216;-59
2023/05/15 00:15:42;;;;;;;1.10;1.00;;;;;;;12.00;100.00;94956.47;4361087;32;20235;-59
2023/05/15 00:18:07;;;;;;;0.50;0.50;;;;;;;11.92;100.00;94943.94;4342128;32;20231;-60
2023/05/15 00:20:34;;;;;;;1.00;0.93;;;;;;;11.90;100.00;94946.91;4359128;32;20256;-59
2023/05/15 00:22:59;;;;;;;1.30;1.30;;;;;;;11.89;100.00;94947.22;4344947;32;20188;-60
2023/05/15 00:25:26;;;;;;;0.87;0.87;;;;;;;11.90;100.00;94943.47;4356333;32;20250;-59
2023/05/15 00:27:51;;;;;;;1.63;0.90;;;;;;;11.93;100.00;94938.31;4343263;32;20181;-60
2023/05/15 00:30:17;;;;;;;1.20;1.20;;;;;;;11.85;100.00;94940.94;4363531;32;20227;-59
2023/05/15 00:32:42;;;;;;;0.83;0.83;;;;;;;11.97;100.00;94943.78;4361445;32;20203;-59
2023/05/15 00:35:09;;;;;;;1.10;1.10;;;;;;;11.82;100.00;94937.06;4343441;32;20213;-60
2023/05/15 00:37:34;;;;;;;1.17;1.17;;;;;;;11.87;100.00;94936.09;4344640;32;20203;-60
2023/05/15 00:40:01;;;;;;;1.30;1.30;;;;;;;11.81;100.00;94940.81;4361036;32;20233;-59
2023/05/15 00:42:28;;;;;;;0.83;0.83;;;;;;;11.89;100.00;94936.59;4345304;32;20241;-59
2023/05/15 00:44:55;;;;;;;1.00;1.00;;;;;;;11.83;100.00;94932.53;4358183;32;20223;-60
2023/05/15 00:47:22;;;;;;;1.00;1.00;;;;;;;11.98;100.00;94929.41;4341526;32;20344;-60
2023/05/15 00:49:48;;;;;;;1.73;1.63;;;;;;;11.99;100.00;94931.75;4361043;32;20210;-59
2023/05/15 00:52:14;;;;;;;1.07;1.07;;;;;;;12.02;100.00;94923.16;4361444;32;20188;-60
2023/05/15 00:54:39;;;;;;;1.23;1.23;;;;;;;11.83;100.00;94924.56;4347087;32;23700;-60
2023/05/15 00:57:07;;;;;;;1.03;1.03;;;;;;;11.79;100.00;94921.72;4360688;32;20205;-60
2023/05/15 00:59:33;;;;;;;1.77;1.67;;;;;;;11.76;100.00;94927.66;4344212;32;20185;-59
2023/05/15 01:02:00;;;;;;;0.70;0.70;;;;;;;11.89;100.00;94920.62;4343078;32;20196;-59
2023/05/15 01:04:25;;;;;;;1.37;1.30;;;;;;;11.83;100.00;94914.72;4356840;32;20193;-59
2023/05/15 01:06:52;;;;;;;0.90;0.90;;;;;;;11.78;100.00;94927.34;4355103;32;20239;-60
2023/05/15 01:09:21;;;;;;;1.83;1.67;;;;;;;11.75;100.00;94922.63;4343500;32;20189;-60
2023/05/15 01:11:49;;;;;;;1.30;1.30;;;;;;;11.78;100.00;94924.69;4358170;32;20184;-60
2023/05/15 01:14:16;;;;;;;1.80;1.70;;;;;;;11.74;100.00;94923.72;4342412;32;20204;-59
2023/05/15 01:16:42;;;;;;;0.90;0.90;;;;;;;11.73;100.00;94925.59;4324018;32;20240;-60
2023/05/15 01:19:08;;;;;;;1.50;1.40;;;;;;;11.67;100.00;94922.28;4356707;32;20201;-59
2023/05/15 01:21:33;;;;;;;1.60;1.60;;;;;;;11.83;100.00;94928.00;4336159;32;20213;-59
2023/05/15 01:24:36;;;;;;;1.80;1.70;;;;;;;11.86;100.00;94926.56;4345532;32;20216;-60
2023/05/15 01:27:13;;;;;;;1.33;1.33;;;;;;;11.74;100.00;94929.03;4358002;32;20207;-60
2023/05/15 01:30:12;;;;;;;2.07;1.97;;;;;;;11.72;100.00;94921.38;4340119;32;20216;-59
2023/05/15 01:33:10;;;;;;;4.10;2.00;;;;;;;11.78;100.00;94924.69;4343956;32;20211;-60
2023/05/15 01:35:56;;;;;;;2.23;2.13;;;;;;;11.64;100.00;94917.59;4336696;32;20185;-59
2023/05/15 01:38:37;;;;;;;1.80;1.70;;;;;;;11.61;100.00;94920.88;4355208;32;20189;-60
2023/05/15 01:41:22;;;;;;;2.00;1.90;;;;;;;11.50;100.00;94908.97;4340002;32;20186;-59
2023/05/15 01:43:59;;;;;;;1.03;1.03;;;;;;;11.34;100.00;94915.78;4346362;32;20233;-59
2023/05/15 01:46:28;;;;;;;1.97;1.87;;;;;;;11.50;100.00;94916.16;4348395;32;20233;-60
2023/05/15 01:48:53;;;;;;;2.17;2.03;;;;;;;11.54;100.00;94914.44;4344690;32;20216;-59
2023/05/15 01:51:20;;;;;;;1.93;1.90;;;;;;;11.56;100.00;94914.94;4366464;32;20227;-59
2023/05/15 01:53:46;;;;;;;1.13;1.13;;;;;;;11.57;100.00;94914.63;4350685;32;20185;-59
2023/05/15 01:56:14;;;;;;;2.03;1.83;;;;;;;11.55;100.00;94908.81;4339988;32;20255;-59
2023/05/15 01:58:47;;;;;;;1.50;1.50;;;;;;;11.58;100.00;94910.88;4360469;32;20189;-59
2023/05/15 02:01:15;;;;;;;2.33;2.23;;;;;;;11.63;100.00;94908.06;4345723;32;20188;-59
2023/05/15 02:03:42;;;;;;;1.73;1.73;;;;;;;11.46;100.00;94913.31;4359851;32;20287;-59
2023/05/15 02:06:08;;;;;;;3.13;2.27;;;;;;;11.41;100.00;94908.19;4334842;32;20244;-60
2023/05/15 02:08:34;;;;;;;2.13;2.03;;;;;;;11.44;100.00;94906.75;4359043;32;20208;-60
2023/05/15 02:11:01;;;;;;;3.37;3.17;;;;;;;11.32;100.00;94902.03;4359911;32;20192;-59
2023/05/15 02:13:27;;;;;;;1.93;1.83;;;;;;;11.33;100.00;94908.91;4358747;32;20247;-59
2023/05/15 02:15:53;;;;;;;3.83;3.37;;;;;;;11.41;100.00;94899.44;4331771;32;20197;-60
2023/05/15 02:18:20;;;;;;;2.13;1.97;;;;;;;11.30;100.00;94906.88;4366444;32;20176;-59
2023/05/15 02:20:46;;;;;;;3.50;2.30;;;;;;;11.30;100.00;94902.34;4343800;32;20186;-59
2023/05/15 02:23:12;;;;;;;2.60;2.50;;;;;;;11.21;100.00;94906.88;4361768;32;20203;-59
2023/05/15 02:25:43;;;;;;;2.77;2.67;;;;;;;11.27;100.00;94897.66;4342678;32;20240;-59
2023/05/15 02:28:19;;;;;;;4.40;4.10;;;;;;;11.34;100.00;94902.53;4346944;32;20185;-59
2023/05/15 02:31:10;;;;;;;2.13;2.03;;;;;;;11.30;100.00;94909.53;4336186;32;20192;-59
2023/05/15 02:34:02;;;;;;;4.60;2.67;;;;;;;11.27;100.00;94905.62;4363274;32;20201;-59
2023/05/15 02:36:32;;;;;;;3.77;3.57;;;;;;;11.30;100.00;94910.31;4360077;32;20207;-60
2023/05/15 02:38:59;;;;;;;2.97;2.77;;;;;;;11.35;100.00;94907.53;4358341;32;20304;-60
2023/05/15 02:41:25;;;;;;;2.43;2.33;;;;;;;11.36;100.00;94913.62;4348491;32;20193;-59
2023/05/15 02:43:54;;;;;;;4.63;3.83;;;;;;;11.32;100.00;94907.34;4356694;32;20215;-60
2023/05/15 02:46:23;;;;;;;4.60;2.90;;;;;;;11.33;100.00;94909.69;4357503;32;20248;-59
2023/05/15 02:48:49;;;;;;;4.17;3.87;;;;;;;11.34;100.00;94905.19;4361530;32;20193;-60
2023/05/15 02:51:16;;;;;;;3.33;3.13;;;;;;;11.37;100.00;94909.87;4344183;32;20212;-59
2023/05/15 02:53:42;;;;;;;2.60;2.47;;;;;;;11.49;100.00;94906.62;4341285;32;20204;-59
2023/05/15 02:56:08;;;;;;;5.97;2.17;;;;;;;11.45;100.00;94906.44;4358345;32;20263;-59
2023/05/15 02:58:36;;;;;;;2.53;2.33;;;;;;;11.45;100.00;94903.78;4344683;32;20189;-59
2023/05/15 03:01:01;;;;;;;2.73;2.60;;;;;;;11.36;100.00;94911.75;4353488;32;20193;-60
2023/05/15 03:03:26;;;;;;;2.37;2.17;;;;;;;11.44;100.00;94899.56;4359221;32;20224;-60
2023/05/15 03:05:53;;;;;;;2.90;2.73;;;;;;;11.40;100.00;94914.56;4327974;32;20198;-60
2023/05/15 03:08:18;;;;;;;2.57;2.47;;;;;;;11.21;100.00;94908.72;4330041;32;20213;-60
2023/05/15 03:10:45;;;;;;;2.10;2.00;;;;;;;11.29;100.00;94907.97;4340243;32;20186;-60
2023/05/15 03:13:10;;;;;;;2.60;2.40;;;;;;;11.35;100.00;94898.78;4331673;32;20302;-59
2023/05/15 03:15:36;;;;;;;2.43;2.33;;;;;;;11.24;100.00;94900.13;4343125;32;20279;-59
2023/05/15 03:18:01;;;;;;;4.07;3.50;;;;;;;11.34;100.00;94905.19;4346485;32;20189;-60
2023/05/15 03:20:26;;;;;;;2.30;2.20;;;;;;;11.15;100.00;94896.69;4326110;32;20236;-59
2023/05/15 03:22:52;;;;;;;2.73;2.57;;;;;;;11.30;100.00;94896.25;4354357;32;20193;-60
2023/05/15 03:25:20;;;;;;;3.90;3.60;;;;;;;11.30;100.00;94901.56;4354790;32;20185;-59
2023/05/15 03:27:46;;;;;;;3.03;2.80;;;;;;;11.18;100.00;94899.50;4337637;32;20197;-59
2023/05/15 03:30:12;;;;;;;3.17;2.97;;;;;;;11.19;100.00;94892.31;4340797;32;20240;-59
2023/05/15 03:32:38;;;;;;;1.30;1.30;;;;;;;11.36;100.00;94893.16;4343066;32;20272;-59
2023/05/15 03:35:03;;;;;;;3.03;2.83;;;;;;;11.31;100.00;94887.19;4349738;32;20185;-60
2023/05/15 03:37:29;;;;;;;2.13;2.03;;;;;;;11.35;100.00;94891.59;4330198;32;20247;-59
2023/05/15 03:39:54;;;;;;;2.27;2.17;;;;;;;11.41;100.00;94894.13;4342456;32;20197;-60
2023/05/15 03:42:22;;;;;;;1.83;1.73;;;;;;;11.28;100.00;94898.44;4348743;32;20189;-60
2023/05/15 03:44:49;;;;;;;2.37;2.17;;;;;;;11.29;100.00;94897.34;4352827;32;20194;-59
2023/05/15 03:47:16;;;;;;;2.03;1.97;;;;;;;11.20;100.00;94899.19;4334439;32;20193;-60
2023/05/15 03:49:42;;;;;;;1.47;1.43;;;;;;;11.34;100.00;94894.56;4333599;32;20299;-59
2023/05/15 03:52:09;;;;;;;2.53;2.37;;;;;;;11.35;100.00;94891.59;4347342;32;20258;-60
2023/05/15 03:54:36;;;;;;;3.00;2.80;;;;;;;11.32;100.00;94902.03;4345167;32;20248;-59
2023/05/15 03:57:06;;;;;;;3.30;2.83;;;;;;;11.32;100.00;94908.13;4331884;32;20208;-59
2023/05/15 03:59:33;;;;;;;1.50;1.50;;;;;;;11.25;100.00;94907.00;4341325;32;20234;-59
2023/05/15 04:01:58;;;;;;;2.33;2.23;;;;;;;11.43;100.00;94902.56;4327618;32;20197;-59
2023/05/15 04:04:23;;;;;;;1.20;1.20;;;;;;;11.37;100.00;94912.53;4348688;32;20215;-59
2023/05/15 04:06:50;;;;;;;1.93;1.83;;;;;;;11.34;100.00;94911.28;4336468;32;20269;-59
2023/05/15 04:09:15;;;;;;;2.63;2.43;;;;;;;11.22;100.00;94908.41;4345978;32;20232;-60
2023/05/15 04:11:40;;;;;;;2.40;2.30;;;;;;;11.32;100.00;94904.69;4349691;32;20196;-59
2023/05/15 04:14:07;;;;;;;1.90;1.80;;;;;;;11.35;100.00;94904.09;4334120;32;20284;-59
2023/05/15 04:16:32;;;;;;;2.03;1.93;;;;;;;11.49;100.00;94904.75;4328206;32;20221;-59
2023/05/15 04:18:58;;;;;;;3.00;2.87;;;;;;;11.40;100.00;94905.81;4336090;32;20219;-59
2023/05/15 04:21:24;;;;;;;3.33;3.03;;;;;;;11.43;100.00;94903.31;4332719;32;20264;-59
2023/05/15 04:23:49;;;;;;;2.17;2.07;;;;;;;11.30;100.00;94909.53;4341998;32;20216;-59
2023/05/15 04:26:15;;;;;;;2.37;2.27;;;;;;;11.32;100.00;94912.66;4334937;32;20194;-59
2023/05/15 04:28:40;;;;;;;2.33;2.23;;;;;;;11.38;100.00;94908.78;4326079;32;20289;-59
2023/05/15 04:31:06;;;;;;;2.50;2.40;;;;;;;11.35;100.00;94917.37;4342353;32;20208;-60
2023/05/15 04:33:32;;;;;;;2.37;2.17;;;;;;;11.44;100.00;94918.16;4341593;32;20217;-59
2023/05/15 04:35:57;;;;;;;2.33;2.23;;;;;;;11.41;100.00;94918.81;4345900;32;20241;-60
2023/05/15 04:38:23;;;;;;;2.13;2.03;;;;;;;11.46;100.00;94913.31;4330716;33;20197;-59
2023/05/15 04:40:48;;;;;;;2.40;2.20;;;;;;;11.53;100.00;94913.66;4331819;32;20216;-59
2023/05/15 04:43:15;;;;;;;1.80;1.80;;;;;;;11.50;100.00;94919.59;4340706;32;20194;-60
2023/05/15 04:45:40;;;;;;;2.47;2.37;;;;;;;11.44;100.00;94915.50;4332821;33;20296;-59
2023/05/15 04:48:05;;;;;;;2.23;2.13;;;;;;;11.44;100.00;94914.72;4330047;33;20197;-59
2023/05/15 04:50:31;;;;;;;3.00;2.80;;;;;;;11.43;100.00;94921.16;4348864;32;20208;-59
2023/05/15 04:52:56;;;;;;;7.73;2.47;;;;;;;11.51;100.00;94915.06;4332539;33;20285;-59
2023/05/15 04:55:21;;;;;;;2.33;2.23;;;;;;;11.42;100.00;94911.63;4340228;32;20236;-60
2023/05/15 04:57:47;;;;;;;3.03;2.93;;;;;;;11.44;100.00;94920.81;4348014;32;20190;-60
2023/05/15 05:00:13;;;;;;;3.57;3.17;;;;;;;11.52;100.00;94913.97;4332312;33;20213;-59
2023/05/15 05:02:39;;;;;;;3.10;2.97;;;;;;;11.53;100.00;94921.62;4332164;33;20205;-60
2023/05/15 05:05:06;;;;;;;2.27;2.17;;;;;;;11.47;100.00;94922.06;4337936;32;20240;-59
2023/05/15 05:07:32;;;;;;;3.20;3.00;;;;;;;11.46;100.00;94923.94;4346404;32;20204;-60
2023/05/15 05:09:58;;;;;;;2.50;2.40;;;;;;;11.60;100.00;94921.19;4355529;32;20251;-60
2023/05/15 05:12:24;;;;;;;3.40;3.10;;;;;;;11.54;100.00;94925.06;4358932;32;20212;-59
2023/05/15 05:14:49;;;;;;;2.47;2.37;;;;;;;11.49;100.00;94936.62;4365258;32;20240;-60
2023/05/15 05:17:15;;;;;;;3.40;3.20;;;;;;;11.62;100.00;94932.28;4348952;32;20208;-60
2023/05/15 05:19:40;;;;;;;2.13;2.03;;;;;;;11.63;100.00;94932.00;4350983;32;20292;-59
2023/05/15 05:22:07;;;;;;;2.67;2.57;;;;;;;11.74;100.00;94942.31;4359548;32;20188;-59
2023/05/15 05:24:36;;;;;;;4.10;3.67;;;;;;;11.74;100.00;94939.66;4359827;32;20200;-60
2023/05/15 05:27:02;;;;;;;3.43;3.00;;;;;;;11.61;100.00;94944.78;4354852;32;20211;-60
2023/05/15 05:29:29;;;;;;;2.67;2.57;;;;;;;11.52;100.00;94943.97;4337981;32;20340;-60
2023/05/15 05:31:54;;;;;;;2.47;2.37;;;;;;;11.62;100.00;94940.25;4345424;32;20193;-60
2023/05/15 05:34:20;;;;;;;2.37;2.20;;;;;;;11.63;100.00;94939.97;4349409;32;20232;-60
2023/05/15 05:36:46;;;;;;;3.07;2.67;;;;;;;11.72;100.00;94942.63;4353370;32;20212;-59
2023/05/15 05:39:11;;;;;;;2.87;2.67;;;;;;;11.67;100.00;94945.41;4356797;32;20225;-59
2023/05/15 05:41:36;;;;;;;3.13;2.93;;;;;;;11.64;100.00;94948.69;4342107;32;20225;-59
2023/05/15 05:44:02;;;;;;;2.37;2.17;;;;;;;11.62;100.00;94941.06;4335492;32;20255;-60
2023/05/15 05:46:28;;;;;;;3.73;3.47;;;;;;;11.70;100.00;94958.09;4349934;32;20252;-60
2023/05/15 05:48:54;;;;;;;2.23;2.13;;;;;;;11.59;100.00;94964.78;4350045;32;20193;-59
2023/05/15 05:51:19;;;;;;;2.87;2.73;;;;;;;11.68;100.00;94961.06;4361672;32;20212;-59
2023/05/15 05:53:44;;;;;;;2.40;2.30;;;;;;;11.61;100.00;94963.41;4341871;32;20193;-59
2023/05/15 05:56:10;;;;;;;3.40;3.17;;;;;;;11.62;100.00;94962.31;4361805;32;20334;-60
2023/05/15 05:58:36;;;;;;;3.37;3.17;;;;;;;11.69;100.00;94959.97;4346299;32;20189;-60
2023/05/15 06:01:01;;;;;;;2.83;2.73;;;;;;;11.81;100.00;94956.75;4341324;32;20223;-60
2023/05/15 06:03:28;;;;;;;4.03;3.23;;;;;;;11.73;100.00;94957.47;4340415;32;20233;-60
2023/05/15 06:05:53;;;;;;;4.13;3.73;;;;;;;11.85;100.00;94956.91;4356826;32;20229;-60
2023/05/15 06:08:19;;;;;;;3.03;2.83;;;;;;;11.85;100.00;94965.66;4357395;32;20235;-59
2023/05/15 06:10:44;;;;;;;2.90;2.80;;;;;;;11.82;100.00;94965.50;4346443;32;20190;-60
2023/05/15 06:13:10;;;;;;;3.57;2.50;;;;;;;11.87;100.00;94965.34;4360054;32;20326;-60
2023/05/15 06:15:36;;;;;;;3.53;3.27;;;;;;;11.78;100.00;94968.00;4356427;32;20201;-59
2023/05/15 06:18:02;;;;;;;2.77;2.57;;;;;;;11.91;100.00;94966.28;4344237;32;20189;-60
2023/05/15 06:20:27;;;;;;;2.43;2.33;;;;;;;11.84;100.00;94961.44;4354772;32;20189;-60
2023/05/15 06:22:53;;;;;;;2.83;2.63;;;;;;;11.89;100.00;94963.94;4342870;32;20216;-60
2023/05/15 06:25:19;;;;;;;3.27;2.97;;;;;;;11.82;100.00;94970.81;4362217;32;20193;-59
2023/05/15 06:27:46;;;;;;;3.47;3.17;;;;;;;11.86;100.00;94971.75;4361635;32;20207;-60
2023/05/15 06:30:12;;;;;;;2.27;2.17;;;;;;;11.80;100.00;94965.81;4348985;32;20318;-60
2023/05/15 06:32:37;;;;;;;2.20;2.10;;;;;;;11.88;100.00;94962.37;4342973;32;20240;-60
2023/05/15 06:35:03;;;;;;;3.30;3.00;;;;;;;11.96;100.00;94966.94;4337428;32;20201;-59
2023/05/15 06:37:29;;;;;;;1.50;1.50;;;;;;;11.89;100.00;94973.78;4359415;32;20300;-59
2023/05/15 06:39:56;;;;;;;3.10;2.90;;;;;;;12.02;100.00;94978.22;4356163;32;20248;-54
2023/05/15 06:42:22;;;;;;;2.60;2.40;;;;;;;13.19;100.00;94971.91;4346003;32;20203;-62
2023/05/15 06:44:48;;;;;;;2.40;2.20;;;;;;;13.86;100.00;94966.62;4362113;32;20193;-55
2023/05/15 06:47:14;;;;;;;2.60;1.80;;;;;;;14.13;100.00;94962.69;4340036;32;20201;-55
2023/05/15 06:49:39;;;;;;;1.40;1.30;;;;;;;14.55;97.46;94973.41;4360773;32;20230;-56
2023/05/15 06:52:05;;;;;;;2.30;2.20;;;;;;;14.85;94.06;94969.50;4342632;32;20190;-55
2023/05/15 06:54:32;;;;;;;2.43;2.33;;;;;;;15.13;91.89;94975.06;4346551;32;20241;-55
2023/05/15 06:56:59;;;;;;;1.57;1.57;;;;;;;15.24;89.56;94981.53;4343812;32;20177;-54
2023/05/15 06:59:24;;;;;;;1.43;1.33;;;;;;;15.19;88.45;94980.97;4345228;32;20296;-57
2023/05/15 07:01:49;;;;;;;1.97;1.87;;;;;;;15.67;91.49;94980.28;4349823;32;20185;-59
2023/05/15 07:04:15;;;;;;;2.40;2.30;;;;;;;15.77;89.19;94985.22;4347098;32;20231;-59
2023/05/15 07:06:40;;;;;;;2.07;1.97;;;;;;;14.92;85.52;94988.47;4347411;32;20318;-58
2023/05/15 07:09:08;;;;;;;1.33;1.27;;;;;;;14.51;87.22;94988.50;4346708;32;20199;-56
2023/05/15 07:11:36;;;;;;;1.50;1.50;;;;;;;16.20;88.70;94987.31;4358138;32;20247;-56
2023/05/15 07:14:03;;;;;;;1.60;1.60;;;;;;;17.59;80.12;94981.19;4353848;32;20264;-56
2023/05/15 07:16:29;;;;;;;2.17;2.07;;;;;;;18.47;74.78;94987.88;4344149;32;20240;-57
2023/05/15 07:18:54;;;;;;;1.73;1.20;;;;;;;19.09;70.88;94978.00;4343300;32;20200;-56
2023/05/15 07:21:19;;;;;;;2.90;2.53;;;;;;;19.37;69.40;94985.81;4360521;32;20245;-56
2023/05/15 07:23:45;;;;;;;2.93;1.93;;;;;;;19.33;68.80;94978.81;4345399;32;20205;-54
2023/05/15 07:26:10;;;;;;;1.93;1.83;;;;;;;19.46;68.30;94972.13;4351875;32;20271;-56
2023/05/15 07:28:35;;;;;;;3.20;1.17;;;;;;;19.75;66.89;94978.78;4346194;32;20193;-55
2023/05/15 07:31:01;;;;;;;1.00;1.00;;;;;;;20.05;65.84;94978.87;4346784;32;20219;-54
2023/05/15 07:33:26;;;;;;;1.20;1.20;;;;;;;19.88;66.32;94982.88;4343368;32;20250;-58
2023/05/15 07:35:53;;;;;;;1.40;1.30;;;;;;;18.30;67.66;94985.56;4351485;32;20296;-58
2023/05/15 07:38:19;;;;;;;1.77;1.67;;;;;;;17.05;72.99;94984.38;4346664;32;20195;-56
2023/05/15 07:40:45;;;;;;;0.67;0.67;;;;;;;16.09;77.39;94986.97;4346224;32;20196;-58
2023/05/15 07:43:10;;;;;;;1.27;1.27;;;;;;;15.91;79.55;94984.88;4351292;32;20225;-59
2023/05/15 07:45:36;;;;;;;1.23;1.23;;;;;;;15.59;81.49;94981.94;4343966;32;20203;-57
2023/05/15 07:48:16;;;;;;;1.10;1.10;;;;;;;15.45;80.97;94974.22;4347646;32;20208;-57
2023/05/15 07:50:42;;;;;;;1.87;1.77;;;;;;;15.50;82.20;94967.88;4357990;32;20269;-56
2023/05/15 07:53:07;;;;;;;1.27;1.23;;;;;;;15.56;81.87;94966.59;4341412;32;20190;-59
2023/05/15 07:55:32;;;;;;;1.70;1.60;;;;;;;15.75;81.77;94961.47;4344569;32;20188;-59
2023/05/15 07:57:58;;;;;;;1.23;1.23;;;;;;;15.71;81.35;94962.47;4357822;32;20255;-56
2023/05/15 08:00:23;;;;;;;1.17;1.17;;;;;;;15.67;81.06;94961.56;4363088;32;20185;-55
2023/05/15 08:02:49;;;;;;;0.90;0.90;;;;;;;15.70;80.47;94968.94;4345762;32;20199;-59
2023/05/15 08:05:14;;;;;;;1.00;1.00;;;;;;;15.23;82.48;94961.28;4345940;32;20227;-59
2023/05/15 08:07:40;;;;;;;1.13;1.13;;;;;;;15.12;82.19;94963.59;4345308;32;20201;-59
2023/05/15 08:10:06;;;;;;;0.90;0.90;;;;;;;15.25;82.11;94963.63;4345742;32;20216;-59
2023/05/15 08:12:31;;;;;;;1.47;1.37;;;;;;;15.45;81.94;94968.09;4332197;32;20193;-57
2023/05/15 08:14:57;;;;;;;1.27;1.27;;;;;;;15.44;80.53;94955.84;4345704;32;20235;-60
2023/05/15 08:17:24;;;;;;;0.87;0.87;;;;;;;15.52;81.47;94954.97;4346516;32;20239;-59
2023/05/15 08:19:50;;;;;;;1.63;1.57;;;;;;;15.41;80.27;94961.84;4332067;32;20190;-57
2023/05/15 08:22:16;;;;;;;1.33;1.33;;;;;;;15.37;80.02;94967.09;4345477;32;20261;-58
2023/05/15 08:24:43;;;;;;;1.13;1.13;;;;;;;15.05;80.87;94960.69;4331272;32;20185;-57
2023/05/15 08:27:10;;;;;;;1.37;1.37;;;;;;;15.21;81.59;94957.34;4323409;32;20245;-57
2023/05/15 08:29:36;;;;;;;1.97;1.77;;;;;;;15.25;80.33;94966.28;4332620;32;20204;-58
2023/05/15 08:32:04;;;;;;;1.07;1.07;;;;;;;15.67;80.11;94962.34;4345816;32;20193;-58
2023/05/15 08:34:29;;;;;;;1.43;1.33;;;;;;;15.42;79.86;94958.06;4331607;32;20243;-58
2023/05/15 08:36:55;;;;;;;1.27;1.27;;;;;;;15.59;80.15;94959.81;4346654;32;20197;-58
2023/05/15 08:39:21;;;;;;;1.07;1.07;;;;;;;15.66;78.84;94954.66;4329669;32;20207;-55
2023/05/15 08:41:57;;;;;;;1.20;1.20;;;;;;;15.48;77.91;94956.75;4345601;32;20193;-58
2023/05/15 08:44:23;;;;;;;4.43;2.10;;;;;;;15.59;78.65;94954.47;4334010;32;20306;-57
2023/05/15 08:46:52;;;;;;;0.90;0.90;;;;;;;15.79;76.50;94948.97;4331526;32;20201;-58
2023/05/15 08:49:46;;;;;;;1.67;1.57;;;;;;;15.94;77.41;94954.78;4348597;32;20273;-54
2023/05/15 08:52:12;;;;;;;1.63;1.53;;;;;;;15.92;76.81;94960.47;4341682;32;20198;-59
2023/05/15 08:54:39;;;;;;;9.33;1.90;;;;;;;15.71;78.64;94955.22;4335296;32;20192;-57
2023/05/15 08:57:05;;;;;;;2.40;2.20;;;;;;;15.45;79.74;94957.41;4334244;32;20201;-57
2023/05/15 08:59:30;;;;;;;1.53;1.50;;;;;;;15.21;80.40;94957.34;4335004;32;20228;-55
2023/05/15 09:01:56;;;;;;;1.20;1.20;;;;;;;15.23;81.09;94961.28;4348558;32;20189;-59
2023/05/15 09:04:21;;;;;;;2.23;2.13;;;;;;;15.21;81.24;94968.06;4344638;32;20192;-58
2023/05/15 09:06:47;;;;;;;1.63;1.53;;;;;;;15.16;81.16;94963.72;4347257;32;20295;-58
2023/05/15 09:09:13;;;;;;;1.53;1.43;;;;;;;15.07;79.98;94958.47;4343627;32;20189;-58
2023/05/15 09:11:47;;;;;;;1.27;1.27;;;;;;;14.84;81.27;94959.94;4350227;32;20284;-59
2023/05/15 09:14:12;;;;;;;1.27;1.27;;;;;;;14.91;81.49;94956.75;4362314;32;20241;-58
2023/05/15 09:16:38;;;;;;;1.07;1.07;;;;;;;15.11;80.18;94956.69;4357110;32;20252;-57
2023/05/15 09:19:07;;;;;;;1.70;1.60;;;;;;;15.02;81.50;94955.19;4356131;32;20181;-56
2023/05/15 09:21:33;;;;;;;1.70;1.63;;;;;;;15.08;80.60;94944.00;4363223;32;20234;-57
2023/05/15 09:24:16;;;;;;;1.40;1.40;;;;;;;15.27;79.99;94948.03;4363072;32;20236;-58
2023/05/15 09:26:47;;;;;;;1.70;1.40;;;;;;;15.38;77.96;94941.91;4339706;32;20236;-58
2023/05/15 09:29:15;;;;;;;3.23;1.80;;;;;;;15.47;77.87;94950.63;4347594;32;20189;-56
2023/05/15 09:31:41;;;;;;;1.23;1.23;;;;;;;15.38;77.43;94943.81;4342138;32;20256;-59
2023/05/15 09:34:08;;;;;;;1.37;1.37;;;;;;;15.31;79.09;94947.03;4353761;32;20235;-59
2023/05/15 09:36:33;;;;;;;1.10;1.10;;;;;;;15.45;78.07;94942.16;4355009;32;20207;-58
2023/05/15 09:39:00;;;;;;;1.37;1.37;;;;;;;15.67;78.43;94943.62;4345134;32;20185;-55
2023/05/15 09:41:26;;;;;;;1.43;1.33;;;;;;;15.64;78.21;94938.94;4351294;32;20266;-57
2023/05/15 09:43:55;;;;;;;2.73;0.80;;;;;;;15.55;78.84;94935.59;4344219;32;20200;-57
2023/05/15 09:46:21;;;;;;;1.20;1.20;;;;;;;15.72;78.69;94938.06;4345072;32;20233;-60
2023/05/15 09:48:47;;;;;;;1.23;1.23;;;;;;;15.71;77.80;94939.19;4341272;32;20303;-59
2023/05/15 09:51:17;;;;;;;1.00;1.00;;;;;;;15.88;77.74;94926.69;4359903;32;20196;-59
2023/05/15 09:53:48;;;;;;;1.30;1.30;;;;;;;15.99;75.93;94927.81;4354632;32;20196;-58
2023/05/15 09:56:15;;;;;;;1.03;1.03;;;;;;;16.12;75.27;94921.31;4344599;32;20261;-59
2023/05/15 09:58:58;;;;;;;1.93;1.73;;;;;;;15.99;74.64;94928.59;4352022;32;20204;-57
2023/05/15 10:01:24;;;;;;;1.23;1.23;;;;;;;16.16;76.40;94922.19;4361523;32;20197;-58
2023/05/15 10:03:59;;;;;;;1.80;1.60;;;;;;;16.47;71.00;94916.16;4349097;32;20185;-58
2023/05/15 10:06:25;;;;;;;1.10;1.10;;;;;;;16.41;70.58;94912.97;4360427;32;20233;-58
2023/05/15 10:08:54;;;;;;;1.17;1.17;;;;;;;16.40;71.83;94916.78;4342658;32;20197;-58
2023/05/15 10:11:23;;;;;;;1.67;1.57;;;;;;;16.49;70.24;94914.72;4345152;32;20193;-57
2023/05/15 10:13:48;;;;;;;1.30;1.30;;;;;;;16.43;71.58;94910.72;4347691;32;20193;-59
2023/05/15 10:16:14;;;;;;;0.90;0.90;;;;;;;16.50;71.83;94905.56;4362027;32;20212;-58
2023/05/15 10:18:41;;;;;;;1.13;1.13;;;;;;;16.54;71.19;94899.53;4361103;32;20223;-59
2023/05/15 10:21:11;;;;;;;1.30;1.30;;;;;;;16.57;70.74;94898.84;4362109;32;20223;-59
2023/05/15 10:23:40;;;;;;;1.20;1.20;;;;;;;16.62;69.56;94901.28;4334856;32;20197;-58
2023/05/15 10:26:32;;;;;;;4.03;1.77;;;;;;;16.52;70.05;94896.41;4344773;32;20197;-59
2023/05/15 10:28:59;;;;;;;1.20;1.13;;;;;;;16.54;70.13;94894.19;4346926;32;20185;-63
2023/05/15 10:31:25;;;;;;;1.10;1.00;;;;;;;16.29;70.86;94890.81;4363846;32;20251;-59
2023/05/15 10:33:50;;;;;;;1.10;1.00;;;;;;;16.30;68.72;94884.34;4360714;32;20193;-58
2023/05/15 10:36:18;;;;;;;1.40;1.40;;;;;;;16.23;66.76;94881.44;4345252;32;20193;-59
2023/05/15 10:38:45;;;;;;;1.23;1.23;;;;;;;16.10;67.78;94891.41;4340781;32;20200;-58
2023/05/15 10:41:14;;;;;;;0.83;0.83;;;;;;;16.03;68.63;94885.84;4360215;32;20283;-59
2023/05/15 10:43:40;;;;;;;1.63;1.53;;;;;;;16.12;68.43;94883.84;4342608;32;20204;-59
2023/05/15 10:46:06;;;;;;;1.87;1.80;;;;;;;16.12;69.75;94881.94;4348148;32;20236;-58
2023/05/15 10:48:32;;;;;;;0.97;0.97;;;;;;;16.15;69.14;94873.22;4341049;32;20189;-59
2023/05/15 10:51:01;;;;;;;1.10;1.10;;;;;;;16.08;69.70;94875.69;4358994;32;20185;-60
2023/05/15 10:53:26;;;;;;;2.30;2.13;;;;;;;16.00;71.21;94876.59;4358304;32;20192;-58
2023/05/15 10:55:52;;;;;;;0.90;0.90;;;;;;;16.00;70.57;94870.50;4362092;32;20227;-59
2023/05/15 10:58:25;;;;;;;1.23;1.23;;;;;;;16.10;73.08;94878.03;4337483;32;20303;-59
2023/05/15 11:00:51;;;;;;;1.33;1.33;;;;;;;16.13;74.58;94880.03;4358993;32;20288;-59
2023/05/15 11:03:35;;;;;;;3.33;3.07;;;;;;;15.90;75.35;94876.31;4359534;32;20208;-58
2023/05/15 11:06:11;;;;;;;1.10;1.03;;;;;;;15.94;73.91;94872.63;4352514;32;20193;-59
2023/05/15 11:08:41;;;;;;;1.30;1.30;;;;;;;15.84;73.09;94866.94;4336359;32;20231;-59
2023/05/15 11:11:07;;;;;;;0.70;0.70;;;;;;;15.60;74.43;94865.84;4355862;32;20200;-59
2023/05/15 11:14:11;;;;;;;1.40;1.30;;;;;;;15.57;73.33;94863.87;4342851;32;20189;-59
2023/05/15 11:16:52;;;;;;;0.97;0.97;;;;;;;15.39;70.58;94863.28;4345462;32;20176;-60
2023/05/15 11:19:31;;;;;;;0.80;0.80;;;;;;;15.41;73.34;94870.97;4358159;32;20276;-59
2023/05/15 11:21:57;;;;;;;1.50;1.50;;;;;;;15.40;78.93;94875.53;4359273;32;20228;-59
2023/05/15 11:24:32;;;;;;;1.73;1.73;;;;;;;15.28;85.02;94875.53;4353893;32;20223;-58
2023/05/15 11:27:03;;;;;;;2.23;2.13;;;;;;;14.78;89.90;94867.78;4351427;32;20283;-60
2023/05/15 11:29:30;;;;;;;2.63;2.43;;;;;;;14.48;92.44;94861.03;4356616;32;20199;-57
2023/05/15 11:31:56;;;;;;;3.87;2.37;;;;;;;14.50;93.17;94866.81;4349694;32;20212;-58